createdAt,value
2024-04-09T00:00:43.034Z,509.00
2024-04-09T00:01:28.066Z,511.00
2024-04-09T00:02:28.037Z,509.00
2024-04-09T00:03:28.322Z,509.00
2024-04-09T00:04:28.078Z,507.00
2024-04-09T00:05:27.984Z,505.00
2024-04-09T00:07:03.514Z,505.00
2024-04-09T00:07:28.107Z,505.00
2024-04-09T00:08:28.110Z,506.00
2024-04-09T00:09:28.179Z,506.00
2024-04-09T00:10:28.114Z,506.00
2024-04-09T00:11:28.163Z,508.00
2024-04-09T00:12:28.222Z,509.00
2024-04-09T00:13:28.161Z,510.00
2024-04-09T00:14:28.208Z,508.00
2024-04-09T00:15:28.250Z,505.00
2024-04-09T00:16:30.380Z,504.00
2024-04-09T00:17:28.322Z,501.00
2024-04-09T00:18:28.459Z,503.00
2024-04-09T00:19:28.432Z,502.00
2024-04-09T00:20:28.196Z,502.00
2024-04-09T00:21:28.252Z,502.00
2024-04-09T00:22:28.167Z,501.00
2024-04-09T00:23:28.147Z,501.00
2024-04-09T00:24:28.156Z,502.00
2024-04-09T00:25:43.027Z,503.00
2024-04-09T00:26:28.097Z,502.00
2024-04-09T00:27:28.100Z,503.00
2024-04-09T00:28:46.522Z,500.00
2024-04-09T00:29:28.056Z,501.00
2024-04-09T00:30:28.043Z,503.00
2024-04-09T00:31:42.531Z,506.00
2024-04-09T00:32:28.161Z,508.00
2024-04-09T00:33:28.268Z,510.00
2024-04-09T00:34:28.267Z,512.00
2024-04-09T00:35:28.164Z,513.00
2024-04-09T00:36:28.241Z,512.00
2024-04-09T00:37:28.188Z,510.00
2024-04-09T00:38:28.225Z,507.00
2024-04-09T00:39:28.343Z,506.00
2024-04-09T00:40:28.282Z,507.00
2024-04-09T00:41:28.316Z,509.00
2024-04-09T00:42:28.475Z,510.00
2024-04-09T00:43:28.378Z,512.00
2024-04-09T00:44:28.413Z,512.00
2024-04-09T00:45:28.508Z,512.00
2024-04-09T00:46:28.470Z,512.00
2024-04-09T00:47:28.594Z,510.00
2024-04-09T00:48:28.800Z,510.00
2024-04-09T00:49:28.611Z,509.00
2024-04-09T00:50:28.615Z,510.00
2024-04-09T00:51:28.689Z,512.00
2024-04-09T00:52:28.673Z,512.00
2024-04-09T00:53:36.549Z,513.00
2024-04-09T00:54:28.820Z,510.00
2024-04-09T00:55:28.676Z,509.00
2024-04-09T00:56:49.675Z,511.00
2024-04-09T00:57:28.755Z,510.00
2024-04-09T00:58:28.658Z,511.00
2024-04-09T00:59:52.536Z,510.00
2024-04-09T01:00:28.725Z,509.00
2024-04-09T01:01:28.679Z,508.00
2024-04-09T01:02:28.690Z,509.00
2024-04-09T01:03:28.752Z,508.00
2024-04-09T01:04:28.859Z,507.00
2024-04-09T01:05:28.603Z,507.00
2024-04-09T01:06:28.621Z,509.00
2024-04-09T01:07:28.574Z,513.00
2024-04-09T01:08:28.573Z,514.00
2024-04-09T01:09:28.588Z,512.00
2024-04-09T01:10:28.538Z,510.00
2024-04-09T01:11:28.614Z,508.00
2024-04-09T01:12:28.636Z,506.00
2024-04-09T01:13:28.523Z,504.00
2024-04-09T01:14:29.605Z,503.00
2024-04-09T01:15:31.135Z,501.00
2024-04-09T01:16:28.484Z,500.00
2024-04-09T01:17:28.550Z,500.00
2024-04-09T01:18:28.568Z,499.00
2024-04-09T01:19:28.441Z,500.00
2024-04-09T01:20:28.437Z,501.00
2024-04-09T01:21:31.118Z,499.00
2024-04-09T01:22:28.410Z,499.00
2024-04-09T01:23:28.413Z,500.00
2024-04-09T01:24:52.044Z,503.00
2024-04-09T01:25:28.373Z,503.00
2024-04-09T01:26:28.386Z,503.00
2024-04-09T01:27:28.454Z,501.00
2024-04-09T01:28:28.342Z,501.00
2024-04-09T01:29:28.335Z,502.00
2024-04-09T01:30:28.397Z,506.00
2024-04-09T01:31:28.319Z,510.00
2024-04-09T01:32:28.409Z,511.00
2024-04-09T01:33:28.400Z,512.00
2024-04-09T01:34:28.308Z,513.00
2024-04-09T01:35:28.276Z,517.00
2024-04-09T01:36:28.348Z,516.00
2024-04-09T01:37:28.262Z,517.00
2024-04-09T01:38:28.253Z,516.00
2024-04-09T01:39:28.284Z,516.00
2024-04-09T01:40:28.224Z,515.00
2024-04-09T01:41:28.201Z,515.00
2024-04-09T01:42:28.300Z,513.00
2024-04-09T01:43:28.181Z,512.00
2024-04-09T01:44:28.173Z,511.00
2024-04-09T01:45:28.194Z,512.00
2024-04-09T01:46:43.096Z,513.00
2024-04-09T01:47:28.222Z,513.00
2024-04-09T01:48:28.269Z,513.00
2024-04-09T01:49:49.131Z,512.00
2024-04-09T01:50:28.108Z,514.00
2024-04-09T01:51:28.168Z,513.00
2024-04-09T01:52:52.054Z,509.00
2024-04-09T01:53:28.074Z,507.00
2024-04-09T01:54:28.208Z,506.00
2024-04-09T01:55:28.046Z,506.00
2024-04-09T01:56:28.046Z,509.00
2024-04-09T01:57:28.227Z,510.00
2024-04-09T01:58:28.022Z,509.00
2024-04-09T01:59:28.026Z,510.00
2024-04-09T02:00:28.062Z,511.00
2024-04-09T02:01:28.047Z,512.00
2024-04-09T02:02:28.074Z,512.00
2024-04-09T02:03:28.100Z,509.00
2024-04-09T02:04:28.093Z,509.00
2024-04-09T02:05:27.965Z,509.00
2024-04-09T02:06:27.974Z,508.00
2024-04-09T02:07:27.951Z,510.00
2024-04-09T02:08:27.954Z,508.00
2024-04-09T02:09:27.987Z,509.00
2024-04-09T02:10:27.926Z,509.00
2024-04-09T02:11:42.588Z,513.00
2024-04-09T02:12:28.123Z,513.00
2024-04-09T02:13:27.893Z,512.00
2024-04-09T02:14:29.441Z,512.00
2024-04-09T02:15:28.000Z,513.00
2024-04-09T02:16:27.906Z,513.00
2024-04-09T02:17:51.620Z,513.00
2024-04-09T02:18:28.020Z,511.00
2024-04-09T02:19:27.843Z,512.00
2024-04-09T02:20:27.869Z,513.00
2024-04-09T02:21:27.967Z,512.00
2024-04-09T02:22:27.814Z,512.00
2024-04-09T02:23:27.803Z,510.00
2024-04-09T02:24:27.873Z,511.00
2024-04-09T02:25:27.781Z,511.00
2024-04-09T02:26:27.768Z,510.00
2024-04-09T02:27:27.772Z,513.00
2024-04-09T02:28:27.761Z,512.00
2024-04-09T02:29:27.740Z,510.00
2024-04-09T02:30:27.761Z,512.00
2024-04-09T02:31:27.693Z,515.00
2024-04-09T02:32:27.717Z,517.00
2024-04-09T02:33:27.734Z,518.00
2024-04-09T02:34:27.668Z,517.00
2024-04-09T02:35:27.656Z,516.00
2024-04-09T02:36:42.636Z,514.00
2024-04-09T02:37:27.626Z,515.00
2024-04-09T02:38:27.646Z,517.00
2024-04-09T02:39:34.727Z,519.00
2024-04-09T02:40:27.608Z,518.00
2024-04-09T02:41:27.586Z,516.00
2024-04-09T02:42:51.073Z,513.00
2024-04-09T02:43:27.689Z,512.00
2024-04-09T02:44:27.706Z,516.00
2024-04-09T02:45:48.752Z,514.00
2024-04-09T02:46:27.813Z,514.00
2024-04-09T02:47:27.775Z,514.00
2024-04-09T02:48:27.855Z,511.00
2024-04-09T02:49:27.688Z,511.00
2024-04-09T02:50:27.741Z,512.00
2024-04-09T02:51:27.682Z,511.00
2024-04-09T02:52:27.688Z,514.00
2024-04-09T02:53:27.662Z,515.00
2024-04-09T02:54:27.682Z,512.00
2024-04-09T02:55:27.654Z,510.00
2024-04-09T02:56:27.642Z,508.00
2024-04-09T02:57:27.757Z,508.00
2024-04-09T02:58:27.646Z,506.00
2024-04-09T02:59:27.589Z,504.00
2024-04-09T03:00:27.985Z,503.00
2024-04-09T03:01:42.086Z,506.00
2024-04-09T03:02:27.781Z,508.00
2024-04-09T03:03:27.857Z,510.00
2024-04-09T03:04:27.797Z,511.00
2024-04-09T03:05:27.770Z,516.00
2024-04-09T03:06:27.806Z,521.00
2024-04-09T03:07:30.583Z,524.00
2024-04-09T03:08:27.811Z,522.00
2024-04-09T03:09:27.853Z,522.00
2024-04-09T03:10:56.634Z,521.00
2024-04-09T03:11:27.841Z,518.00
2024-04-09T03:12:27.813Z,517.00
2024-04-09T03:13:27.773Z,514.00
2024-04-09T03:14:27.764Z,515.00
2024-04-09T03:15:27.799Z,516.00
2024-04-09T03:16:27.783Z,516.00
2024-04-09T03:17:27.803Z,518.00
2024-04-09T03:18:27.760Z,517.00
2024-04-09T03:19:27.724Z,518.00
2024-04-09T03:20:27.753Z,517.00
2024-04-09T03:21:27.763Z,518.00
2024-04-09T03:22:27.713Z,517.00
2024-04-09T03:23:27.734Z,514.00
2024-04-09T03:24:27.802Z,513.00
2024-04-09T03:25:27.830Z,512.00
2024-04-09T03:26:28.175Z,511.00
2024-04-09T03:27:27.946Z,509.00
2024-04-09T03:28:27.953Z,509.00
2024-04-09T03:29:28.000Z,509.00
2024-04-09T03:30:28.083Z,511.00
2024-04-09T03:31:28.098Z,511.00
2024-04-09T03:32:43.144Z,511.00
2024-04-09T03:33:28.326Z,509.00
2024-04-09T03:34:28.169Z,506.00
2024-04-09T03:35:33.616Z,507.00
2024-04-09T03:36:28.260Z,505.00
2024-04-09T03:37:28.256Z,503.00
2024-04-09T03:38:52.605Z,505.00
2024-04-09T03:39:28.290Z,505.00
2024-04-09T03:40:28.248Z,507.00
2024-04-09T03:41:28.232Z,510.00
2024-04-09T03:42:28.288Z,514.00
2024-04-09T03:43:28.211Z,516.00
2024-04-09T03:44:28.196Z,518.00
2024-04-09T03:45:28.218Z,519.00
2024-04-09T03:46:28.168Z,518.00
2024-04-09T03:47:28.229Z,517.00
2024-04-09T03:48:28.235Z,517.00
2024-04-09T03:49:28.242Z,516.00
2024-04-09T03:50:28.128Z,516.00
2024-04-09T03:51:28.135Z,512.00
2024-04-09T03:52:28.109Z,515.00
2024-04-09T03:53:28.094Z,513.00
2024-04-09T03:54:28.124Z,512.00
2024-04-09T03:55:28.072Z,512.00
2024-04-09T03:56:28.051Z,512.00
2024-04-09T03:57:42.735Z,512.00
2024-04-09T03:58:28.024Z,510.00
2024-04-09T03:59:28.030Z,509.00
2024-04-09T04:00:49.098Z,509.00
2024-04-09T04:01:28.051Z,512.00
2024-04-09T04:02:28.098Z,511.00
2024-04-09T04:03:46.391Z,511.00
2024-04-09T04:04:28.001Z,513.00
2024-04-09T04:05:27.974Z,514.00
2024-04-09T04:06:28.025Z,516.00
2024-04-09T04:07:27.912Z,515.00
2024-04-09T04:08:27.905Z,515.00
2024-04-09T04:09:27.924Z,517.00
2024-04-09T04:10:27.887Z,520.00
2024-04-09T04:11:27.978Z,520.00
2024-04-09T04:12:27.983Z,525.00
2024-04-09T04:13:27.869Z,528.00
2024-04-09T04:14:27.860Z,528.00
2024-04-09T04:15:27.904Z,525.00
2024-04-09T04:16:27.843Z,523.00
2024-04-09T04:17:27.883Z,519.00
2024-04-09T04:18:27.884Z,518.00
2024-04-09T04:19:34.619Z,515.00
2024-04-09T04:20:27.811Z,515.00
2024-04-09T04:21:27.865Z,515.00
2024-04-09T04:22:27.779Z,515.00
2024-04-09T04:23:27.772Z,519.00
2024-04-09T04:24:27.823Z,523.00
2024-04-09T04:25:48.760Z,522.00
2024-04-09T04:26:27.827Z,525.00
2024-04-09T04:27:27.798Z,523.00
2024-04-09T04:28:48.734Z,520.00
2024-04-09T04:29:27.711Z,521.00
2024-04-09T04:30:34.980Z,537.00
2024-04-09T04:31:49.807Z,525.00
2024-04-09T04:32:42.339Z,519.00
2024-04-09T04:33:42.444Z,517.00
2024-04-09T04:34:56.800Z,514.00
2024-04-09T04:35:42.428Z,514.00
2024-04-09T04:36:42.477Z,513.00
2024-04-09T04:38:04.310Z,514.00
2024-04-09T04:38:42.502Z,517.00
2024-04-09T04:39:42.551Z,517.00
2024-04-09T04:40:42.516Z,520.00
2024-04-09T04:41:42.522Z,520.00
2024-04-09T04:42:42.615Z,519.00
2024-04-09T04:43:42.546Z,520.00
2024-04-09T04:44:42.559Z,519.00
2024-04-09T04:45:42.600Z,518.00
2024-04-09T04:46:42.574Z,515.00
2024-04-09T04:47:42.631Z,513.00
2024-04-09T04:48:42.815Z,511.00
2024-04-09T04:49:42.680Z,511.00
2024-04-09T04:50:42.602Z,513.00
2024-04-09T04:51:42.701Z,512.00
2024-04-09T04:52:42.633Z,512.00
2024-04-09T04:53:50.313Z,514.00
2024-04-09T04:54:42.689Z,515.00
2024-04-09T04:55:42.663Z,515.00
2024-04-09T04:56:57.354Z,516.00
2024-04-09T04:57:42.681Z,516.00
2024-04-09T04:58:42.683Z,515.00
2024-04-09T04:59:57.334Z,515.00
2024-04-09T05:00:43.196Z,516.00
2024-04-09T05:01:43.012Z,517.00
2024-04-09T05:03:04.200Z,521.00
2024-04-09T05:03:43.047Z,523.00
2024-04-09T05:04:43.050Z,524.00
2024-04-09T05:05:43.022Z,523.00
2024-04-09T05:06:43.129Z,524.00
2024-04-09T05:07:43.022Z,525.00
2024-04-09T05:08:43.023Z,528.00
2024-04-09T05:09:43.054Z,530.00
2024-04-09T05:10:43.029Z,531.00
2024-04-09T05:11:43.064Z,532.00
2024-04-09T05:12:43.074Z,535.00
2024-04-09T05:13:43.044Z,537.00
2024-04-09T05:14:43.815Z,536.00
2024-04-09T05:15:43.143Z,533.00
2024-04-09T05:16:43.050Z,532.00
2024-04-09T05:17:43.169Z,532.00
2024-04-09T05:19:43.141Z,527.00
2024-04-09T05:20:43.080Z,526.00
2024-04-09T05:21:57.813Z,525.00
2024-04-09T05:22:43.117Z,527.00
2024-04-09T05:23:43.328Z,527.00
2024-04-09T05:24:43.121Z,525.00
2024-04-09T05:25:43.107Z,525.00
2024-04-09T05:26:43.140Z,525.00
2024-04-09T05:27:57.822Z,528.00
2024-04-09T05:28:43.326Z,549.00
2024-04-09T05:29:43.826Z,561.00
2024-04-09T05:31:10.824Z,569.00
2024-04-09T05:31:46.604Z,636.00
2024-04-09T05:32:43.431Z,650.00
2024-04-09T05:33:43.396Z,656.00
2024-04-09T05:34:43.176Z,661.00
2024-04-09T05:35:43.189Z,654.00
2024-04-09T05:36:43.471Z,648.00
2024-04-09T05:37:43.622Z,705.00
2024-04-09T05:38:43.478Z,691.00
2024-04-09T05:39:43.451Z,690.00
2024-04-09T05:40:43.443Z,679.00
2024-04-09T05:41:43.324Z,670.00
2024-04-09T05:42:43.384Z,668.00
2024-04-09T05:43:43.346Z,673.00
2024-04-09T05:44:43.327Z,676.00
2024-04-09T05:45:43.402Z,674.00
2024-04-09T05:46:43.326Z,673.00
2024-04-09T05:47:43.508Z,675.00
2024-04-09T05:48:43.551Z,671.00
2024-04-09T05:49:46.387Z,666.00
2024-04-09T05:50:43.387Z,662.00
2024-04-09T05:51:43.386Z,663.00
2024-04-09T05:52:43.387Z,661.00
2024-04-09T05:53:43.426Z,662.00
2024-04-09T05:54:43.554Z,662.00
2024-04-09T05:56:04.456Z,668.00
2024-04-09T05:56:43.421Z,669.00
2024-04-09T05:57:43.637Z,668.00
2024-04-09T05:58:43.456Z,670.00
2024-04-09T05:59:43.479Z,663.00
2024-04-09T06:00:43.564Z,663.00
2024-04-09T06:01:43.554Z,664.00
2024-04-09T06:02:43.518Z,660.00
2024-04-09T06:03:43.606Z,660.00
2024-04-09T06:04:43.628Z,661.00
2024-04-09T06:05:43.579Z,660.00
2024-04-09T06:06:43.590Z,665.00
2024-04-09T06:07:43.567Z,666.00
2024-04-09T06:08:43.592Z,666.00
2024-04-09T06:09:43.642Z,659.00
2024-04-09T06:10:43.607Z,661.00
2024-04-09T06:11:50.377Z,664.00
2024-04-09T06:12:43.945Z,664.00
2024-04-09T06:13:43.666Z,664.00
2024-04-09T06:14:58.419Z,662.00
2024-04-09T06:15:43.681Z,660.00
2024-04-09T06:16:43.674Z,658.00
2024-04-09T06:18:00.044Z,654.00
2024-04-09T06:18:43.930Z,650.00
2024-04-09T06:19:43.933Z,647.00
2024-04-09T06:21:04.743Z,647.00
2024-04-09T06:21:43.803Z,646.00
2024-04-09T06:22:43.743Z,653.00
2024-04-09T06:23:43.764Z,655.00
2024-04-09T06:24:44.806Z,651.00
2024-04-09T06:25:43.777Z,645.00
2024-04-09T06:26:43.791Z,646.00
2024-04-09T06:27:43.849Z,711.00
2024-04-09T06:28:43.896Z,683.00
2024-04-09T06:29:43.850Z,674.00
2024-04-09T06:30:44.008Z,667.00
2024-04-09T06:31:43.855Z,694.00
2024-04-09T06:32:44.049Z,711.00
2024-04-09T06:33:43.911Z,714.00
2024-04-09T06:34:43.987Z,712.00
2024-04-09T06:35:43.918Z,710.00
2024-04-09T06:36:44.016Z,727.00
2024-04-09T06:37:43.958Z,733.00
2024-04-09T06:38:44.358Z,771.00
2024-04-09T06:39:44.246Z,757.00
2024-04-09T06:40:44.157Z,746.00
2024-04-09T06:41:44.210Z,739.00
2024-04-09T06:42:50.931Z,734.00
2024-04-09T06:43:44.293Z,733.00
2024-04-09T06:44:44.277Z,736.00
2024-04-09T06:46:07.854Z,742.00
2024-04-09T06:46:44.486Z,745.00
2024-04-09T06:47:44.585Z,749.00
2024-04-09T06:49:05.607Z,808.00
2024-04-09T06:49:44.922Z,767.00
2024-04-09T06:50:44.512Z,766.00
2024-04-09T06:51:44.571Z,765.00
2024-04-09T06:52:44.550Z,790.00
2024-04-09T06:53:44.527Z,793.00
2024-04-09T06:54:44.616Z,804.00
2024-04-09T06:55:44.526Z,806.00
2024-04-09T06:56:44.529Z,807.00
2024-04-09T06:57:44.554Z,813.00
2024-04-09T06:58:44.915Z,823.00
2024-04-09T06:59:44.561Z,847.00
2024-04-09T07:00:44.682Z,880.00
2024-04-09T07:01:44.755Z,794.00
2024-04-09T07:02:44.621Z,896.00
2024-04-09T07:03:44.713Z,892.00
2024-04-09T07:04:44.567Z,887.00
2024-04-09T07:05:44.548Z,935.00
2024-04-09T07:06:44.592Z,889.00
2024-04-09T07:07:44.537Z,878.00
2024-04-09T07:08:44.566Z,942.00
2024-04-09T07:09:44.641Z,932.00
2024-04-09T07:11:00.910Z,925.00
2024-04-09T07:11:44.576Z,826.00
2024-04-09T07:12:44.546Z,869.00
2024-04-09T07:14:08.902Z,898.00
2024-04-09T07:14:44.509Z,763.00
2024-04-09T07:15:44.540Z,876.00
2024-04-09T07:17:00.919Z,870.00
2024-04-09T07:17:44.586Z,825.00
2024-04-09T07:18:44.519Z,827.00
2024-04-09T07:19:44.544Z,812.00
2024-04-09T07:20:44.479Z,828.00
2024-04-09T07:21:44.668Z,895.00
2024-04-09T07:22:45.652Z,880.00
2024-04-09T07:23:44.487Z,990.00
2024-04-09T07:24:44.529Z,828.00
2024-04-09T07:25:44.485Z,1031.00
2024-04-09T07:26:44.481Z,923.00
2024-04-09T07:27:44.460Z,947.00
2024-04-09T07:28:44.886Z,954.00
2024-04-09T07:29:44.465Z,863.00
2024-04-09T07:30:44.519Z,909.00
2024-04-09T07:31:44.499Z,900.00
2024-04-09T07:32:44.481Z,887.00
2024-04-09T07:33:44.537Z,913.00
2024-04-09T07:34:44.589Z,913.00
2024-04-09T07:35:44.643Z,919.00
2024-04-09T07:36:48.074Z,911.00
2024-04-09T07:37:44.686Z,932.00
2024-04-09T07:38:55.380Z,877.00
2024-04-09T07:39:44.703Z,923.00
2024-04-09T07:40:44.685Z,914.00
2024-04-09T07:42:08.071Z,890.00
2024-04-09T07:42:45.022Z,842.00
2024-04-09T07:43:45.437Z,957.00
2024-04-09T07:44:45.020Z,920.00
2024-04-09T07:45:45.153Z,834.00
2024-04-09T07:46:45.239Z,853.00
2024-04-09T07:47:45.290Z,826.00
2024-04-09T07:48:45.396Z,856.00
2024-04-09T07:49:45.432Z,901.00
2024-04-09T07:50:45.391Z,966.00
2024-04-09T07:51:45.481Z,859.00
2024-04-09T07:52:45.521Z,980.00
2024-04-09T07:53:45.612Z,960.00
2024-04-09T07:54:45.710Z,1031.00
2024-04-09T07:55:45.728Z,1043.00
2024-04-09T07:56:45.799Z,1038.00
2024-04-09T07:57:45.866Z,1035.00
2024-04-09T07:58:45.916Z,1019.00
2024-04-09T07:59:45.976Z,984.00
2024-04-09T08:00:53.127Z,975.00
2024-04-09T08:01:46.010Z,977.00
2024-04-09T08:02:46.062Z,988.00
2024-04-09T08:03:46.206Z,1040.00
2024-04-09T08:04:46.156Z,1053.00
2024-04-09T08:05:46.058Z,1065.00
2024-04-09T08:07:01.057Z,1075.00
2024-04-09T08:07:46.016Z,1084.00
2024-04-09T08:08:48.536Z,1088.00
2024-04-09T08:10:07.033Z,1094.00
2024-04-09T08:10:45.930Z,1100.00
2024-04-09T08:11:46.117Z,1107.00
2024-04-09T08:12:45.929Z,968.00
2024-04-09T08:13:45.901Z,987.00
2024-04-09T08:14:45.880Z,1043.00
2024-04-09T08:15:46.000Z,990.00
2024-04-09T08:16:45.856Z,973.00
2024-04-09T08:17:46.028Z,947.00
2024-04-09T08:18:46.136Z,905.00
2024-04-09T08:19:45.899Z,1001.00
2024-04-09T08:20:45.826Z,977.00
2024-04-09T08:21:45.848Z,970.00
2024-04-09T08:22:45.800Z,1022.00
2024-04-09T08:23:45.834Z,898.00
2024-04-09T08:24:45.894Z,853.00
2024-04-09T08:25:45.775Z,804.00
2024-04-09T08:26:45.765Z,776.00
2024-04-09T08:27:45.802Z,777.00
2024-04-09T08:28:59.911Z,757.00
2024-04-09T08:29:45.744Z,718.00
2024-04-09T08:30:45.782Z,718.00
2024-04-09T08:31:52.463Z,711.00
2024-04-09T08:32:45.762Z,700.00
2024-04-09T08:33:45.822Z,690.00
2024-04-09T08:35:09.543Z,669.00
2024-04-09T08:35:45.815Z,667.00
2024-04-09T08:36:45.831Z,733.00
2024-04-09T08:37:45.841Z,747.00
2024-04-09T08:38:45.807Z,771.00
2024-04-09T08:39:45.910Z,774.00
2024-04-09T08:40:45.740Z,752.00
2024-04-09T08:41:45.738Z,768.00
2024-04-09T08:42:45.915Z,745.00
2024-04-09T08:43:45.795Z,762.00
2024-04-09T08:44:45.746Z,751.00
2024-04-09T08:45:45.798Z,794.00
2024-04-09T08:46:45.802Z,819.00
2024-04-09T08:47:46.062Z,871.00
2024-04-09T08:48:46.178Z,851.00
2024-04-09T08:49:46.059Z,733.00
2024-04-09T08:50:45.889Z,816.00
2024-04-09T08:51:45.949Z,796.00
2024-04-09T08:52:45.880Z,795.00
2024-04-09T08:53:52.411Z,861.00
2024-04-09T08:54:45.751Z,876.00
2024-04-09T08:55:45.714Z,925.00
2024-04-09T08:56:45.715Z,931.00
2024-04-09T08:57:45.729Z,776.00
2024-04-09T08:58:45.711Z,936.00
2024-04-09T09:00:06.895Z,909.00
2024-04-09T09:00:45.776Z,859.00
2024-04-09T09:01:45.706Z,794.00
2024-04-09T09:03:21.296Z,939.00
2024-04-09T09:03:46.036Z,967.00
2024-04-09T09:04:46.097Z,991.00
2024-04-09T09:05:45.979Z,1009.00
2024-04-09T09:06:46.099Z,1010.00
2024-04-09T09:07:46.041Z,1010.00
2024-04-09T09:08:46.079Z,1016.00
2024-04-09T09:09:46.474Z,1015.00
2024-04-09T09:10:46.170Z,1017.00
2024-04-09T09:11:46.183Z,1020.00
2024-04-09T09:12:46.324Z,1022.00
2024-04-09T09:13:46.264Z,1030.00
2024-04-09T09:14:46.307Z,1041.00
2024-04-09T09:15:46.441Z,1047.00
2024-04-09T09:16:46.418Z,1048.00
2024-04-09T09:17:46.456Z,1038.00
2024-04-09T09:18:47.447Z,1034.00
2024-04-09T09:19:46.453Z,1036.00
2024-04-09T09:20:46.556Z,1028.00
2024-04-09T09:21:46.682Z,1028.00
2024-04-09T09:22:46.552Z,1025.00
2024-04-09T09:23:46.591Z,1020.00
2024-04-09T09:25:00.925Z,917.00
2024-04-09T09:25:46.625Z,976.00
2024-04-09T09:26:46.622Z,965.00
2024-04-09T09:28:01.444Z,962.00
2024-04-09T09:28:46.602Z,893.00
2024-04-09T09:29:46.969Z,866.00
2024-04-09T09:30:46.816Z,777.00
2024-04-09T09:31:46.733Z,753.00
2024-04-09T09:32:46.673Z,717.00
2024-04-09T09:33:46.653Z,694.00
2024-04-09T09:34:46.964Z,680.00
2024-04-09T09:35:46.605Z,678.00
2024-04-09T09:36:46.654Z,665.00
2024-04-09T09:37:46.608Z,648.00
2024-04-09T09:38:46.635Z,638.00
2024-04-09T09:39:47.006Z,662.00
2024-04-09T09:40:46.626Z,697.00
2024-04-09T09:41:46.612Z,641.00
2024-04-09T09:42:46.728Z,635.00
2024-04-09T09:43:46.606Z,625.00
2024-04-09T09:44:46.622Z,619.00
2024-04-09T09:45:46.740Z,619.00
2024-04-09T09:46:53.428Z,616.00
2024-04-09T09:47:46.675Z,610.00
2024-04-09T09:48:46.650Z,602.00
2024-04-09T09:50:10.286Z,589.00
2024-04-09T09:50:47.601Z,583.00
2024-04-09T09:51:46.639Z,577.00
2024-04-09T09:53:14.626Z,574.00
2024-04-09T09:53:46.620Z,569.00
2024-04-09T09:54:47.035Z,566.00
2024-04-09T09:56:08.450Z,566.00
2024-04-09T09:56:46.612Z,568.00
2024-04-09T09:57:46.616Z,566.00
2024-04-09T09:58:46.595Z,560.00
2024-04-09T09:59:46.593Z,560.00
2024-04-09T10:00:46.666Z,557.00
2024-04-09T10:01:46.649Z,555.00
2024-04-09T10:02:50.728Z,553.00
2024-04-09T10:03:46.737Z,550.00
2024-04-09T10:04:46.664Z,547.00
2024-04-09T10:05:46.623Z,544.00
2024-04-09T10:06:46.619Z,541.00
2024-04-09T10:07:46.591Z,539.00
2024-04-09T10:08:46.599Z,537.00
2024-04-09T10:09:46.701Z,535.00
2024-04-09T10:10:46.610Z,531.00
2024-04-09T10:11:46.735Z,529.00
2024-04-09T10:12:46.810Z,527.00
2024-04-09T10:13:46.599Z,527.00
2024-04-09T10:14:46.635Z,526.00
2024-04-09T10:15:46.757Z,524.00
2024-04-09T10:16:46.704Z,521.00
2024-04-09T10:17:53.622Z,518.00
2024-04-09T10:18:46.927Z,517.00
2024-04-09T10:19:46.981Z,517.00
2024-04-09T10:21:01.581Z,516.00
2024-04-09T10:21:46.777Z,516.00
2024-04-09T10:22:46.741Z,516.00
2024-04-09T10:23:46.741Z,517.00
2024-04-09T10:24:46.837Z,514.00
2024-04-09T10:25:46.735Z,515.00
2024-04-09T10:26:46.737Z,517.00
2024-04-09T10:27:46.831Z,519.00
2024-04-09T10:28:46.744Z,518.00
2024-04-09T10:29:46.752Z,520.00
2024-04-09T10:30:46.883Z,521.00
2024-04-09T10:31:46.765Z,523.00
2024-04-09T10:32:46.762Z,519.00
2024-04-09T10:33:46.809Z,519.00
2024-04-09T10:34:47.083Z,518.00
2024-04-09T10:35:46.774Z,515.00
2024-04-09T10:36:46.837Z,514.00
2024-04-09T10:37:46.727Z,508.00
2024-04-09T10:38:46.741Z,507.00
2024-04-09T10:39:47.043Z,504.00
2024-04-09T10:40:46.751Z,501.00
2024-04-09T10:41:46.718Z,503.00
2024-04-09T10:42:53.504Z,505.00
2024-04-09T10:43:46.719Z,505.00
2024-04-09T10:44:46.735Z,504.00
2024-04-09T10:46:08.371Z,504.00
2024-04-09T10:46:47.725Z,504.00
2024-04-09T10:47:46.814Z,507.00
2024-04-09T10:49:13.092Z,511.00
2024-04-09T10:49:46.784Z,520.00
2024-04-09T10:50:46.829Z,523.00
2024-04-09T10:51:46.947Z,518.00
2024-04-09T10:52:46.959Z,516.00
2024-04-09T10:53:47.037Z,525.00
2024-04-09T10:54:47.135Z,539.00
2024-04-09T10:55:47.163Z,543.00
2024-04-09T10:56:47.316Z,534.00
2024-04-09T10:57:47.329Z,522.00
2024-04-09T10:58:47.358Z,519.00
2024-04-09T10:59:47.423Z,518.00
2024-04-09T11:00:47.580Z,514.00
2024-04-09T11:01:47.567Z,510.00
2024-04-09T11:02:47.675Z,514.00
2024-04-09T11:03:47.854Z,520.00
2024-04-09T11:04:58.579Z,522.00
2024-04-09T11:05:47.743Z,527.00
2024-04-09T11:06:47.801Z,528.00
2024-04-09T11:07:54.475Z,530.00
2024-04-09T11:08:47.834Z,536.00
2024-04-09T11:09:48.120Z,537.00
2024-04-09T11:10:50.494Z,643.00
2024-04-09T11:11:47.748Z,707.00
2024-04-09T11:12:47.799Z,617.00
2024-04-09T11:14:10.501Z,613.00
2024-04-09T11:14:47.754Z,616.00
2024-04-09T11:15:47.836Z,625.00
2024-04-09T11:16:47.725Z,617.00
2024-04-09T11:17:47.763Z,604.00
2024-04-09T11:18:47.852Z,611.00
2024-04-09T11:19:50.154Z,611.00
2024-04-09T11:20:47.704Z,610.00
2024-04-09T11:21:47.743Z,602.00
2024-04-09T11:22:47.683Z,607.00
2024-04-09T11:23:47.724Z,609.00
2024-04-09T11:24:47.724Z,641.00
2024-04-09T11:25:47.672Z,648.00
2024-04-09T11:26:47.664Z,646.00
2024-04-09T11:27:47.702Z,646.00
2024-04-09T11:28:47.645Z,650.00
2024-04-09T11:29:47.651Z,646.00
2024-04-09T11:30:47.712Z,646.00
2024-04-09T11:31:47.626Z,642.00
2024-04-09T11:32:50.588Z,638.00
2024-04-09T11:33:47.713Z,633.00
2024-04-09T11:34:47.710Z,630.00
2024-04-09T11:36:10.365Z,625.00
2024-04-09T11:36:48.644Z,621.00
2024-04-09T11:37:47.598Z,619.00
2024-04-09T11:39:02.553Z,617.00
2024-04-09T11:39:47.683Z,619.00
2024-04-09T11:40:47.562Z,618.00
2024-04-09T11:41:48.637Z,615.00
2024-04-09T11:42:47.587Z,613.00
2024-04-09T11:43:47.547Z,610.00
2024-04-09T11:44:47.544Z,607.00
2024-04-09T11:45:47.583Z,607.00
2024-04-09T11:46:47.551Z,605.00
2024-04-09T11:47:47.640Z,603.00
2024-04-09T11:48:47.656Z,599.00
2024-04-09T11:49:47.540Z,597.00
2024-04-09T11:50:47.514Z,594.00
2024-04-09T11:51:47.541Z,591.00
2024-04-09T11:52:47.533Z,588.00
2024-04-09T11:53:47.503Z,586.00
2024-04-09T11:54:47.565Z,584.00
2024-04-09T11:55:47.497Z,583.00
2024-04-09T11:56:47.489Z,583.00
2024-04-09T11:57:47.566Z,582.00
2024-04-09T11:58:47.466Z,580.00
2024-04-09T11:59:47.463Z,580.00
2024-04-09T12:01:03.539Z,577.00
2024-04-09T12:01:47.525Z,577.00
2024-04-09T12:02:47.426Z,570.00
2024-04-09T12:04:08.670Z,568.00
2024-04-09T12:04:47.700Z,568.00
2024-04-09T12:05:47.476Z,567.00
2024-04-09T12:07:15.483Z,565.00
2024-04-09T12:07:47.438Z,565.00
2024-04-09T12:08:47.417Z,567.00
2024-04-09T12:09:47.485Z,571.00
2024-04-09T12:10:47.430Z,572.00
2024-04-09T12:11:47.379Z,574.00
2024-04-09T12:12:47.512Z,576.00
2024-04-09T12:13:47.362Z,572.00
2024-04-09T12:14:47.389Z,572.00
2024-04-09T12:15:47.462Z,574.00
2024-04-09T12:16:47.373Z,575.00
2024-04-09T12:17:47.387Z,577.00
2024-04-09T12:18:47.642Z,575.00
2024-04-09T12:19:47.425Z,580.00
2024-04-09T12:20:47.356Z,566.00
2024-04-09T12:21:47.425Z,554.00
2024-04-09T12:22:53.989Z,544.00
2024-04-09T12:23:47.365Z,541.00
2024-04-09T12:24:47.450Z,535.00
2024-04-09T12:25:54.495Z,533.00
2024-04-09T12:26:47.330Z,532.00
2024-04-09T12:27:47.404Z,529.00
2024-04-09T12:29:01.992Z,527.00